createdAt,value
2022-08-21T00:01:57.869Z,1.2
2022-08-21T00:13:58.009Z,1.2
2022-08-21T00:25:57.947Z,1.1
2022-08-21T00:37:58.544Z,1.1
2022-08-21T00:49:58.188Z,1.2
2022-08-21T01:01:58.300Z,1.2
2022-08-21T01:13:57.881Z,1.2
2022-08-21T01:25:57.991Z,2.7
2022-08-21T01:37:58.052Z,2.7
2022-08-21T01:49:57.989Z,1.1
2022-08-21T02:01:58.333Z,1.1
2022-08-21T02:13:58.008Z,1.1
2022-08-21T02:25:57.976Z,1.2
2022-08-21T02:37:58.048Z,1.2
2022-08-21T02:49:57.931Z,1.1
2022-08-21T03:01:58.259Z,1.1
2022-08-21T03:13:58.237Z,1.1
2022-08-21T03:25:57.996Z,1.2
2022-08-21T03:37:57.977Z,1.2
2022-08-21T03:49:57.852Z,1.3
2022-08-21T04:01:58.125Z,1.3
2022-08-21T04:13:58.197Z,1.3
2022-08-21T04:25:57.901Z,1.1
2022-08-21T04:37:57.876Z,1.1
2022-08-21T04:49:58.214Z,1.2
2022-08-21T05:01:57.972Z,1.2
2022-08-21T05:13:58.080Z,1.2
2022-08-21T05:25:58.237Z,1.1
2022-08-21T05:37:57.933Z,1.1
2022-08-21T05:49:57.882Z,1.4
2022-08-21T06:02:01.166Z,1.4
2022-08-21T06:13:57.931Z,1.4
2022-08-21T06:25:58.151Z,1.0
2022-08-21T06:37:58.501Z,1.0
2022-08-21T06:49:58.096Z,0.9
2022-08-21T07:01:58.082Z,0.9
2022-08-21T07:13:58.318Z,0.9
2022-08-21T07:25:57.939Z,1.0
2022-08-21T07:37:58.000Z,1.0
2022-08-21T07:49:58.287Z,1.0
2022-08-21T08:01:58.402Z,1.0
2022-08-21T08:13:58.227Z,1.0
2022-08-21T08:25:58.456Z,1.3
2022-08-21T08:37:58.466Z,1.3
2022-08-21T08:49:58.048Z,1.1
2022-08-21T09:01:58.320Z,1.1
2022-08-21T09:13:58.220Z,1.1
2022-08-21T09:25:58.115Z,0.9
2022-08-21T09:37:58.193Z,0.9
2022-08-21T09:49:58.335Z,0.9
2022-08-21T10:01:58.436Z,0.9
2022-08-21T10:13:58.483Z,0.9
2022-08-21T10:26:13.474Z,0.8
2022-08-21T10:37:58.912Z,0.8
2022-08-21T10:49:58.847Z,1.5
2022-08-21T11:01:58.042Z,1.5
2022-08-21T11:13:58.329Z,1.5
2022-08-21T11:25:58.239Z,1.7
2022-08-21T11:37:58.472Z,1.7
2022-08-21T11:49:58.238Z,1.0
2022-08-21T12:01:58.284Z,1.0
2022-08-21T12:13:58.528Z,1.0
2022-08-21T12:25:58.206Z,2.3
2022-08-21T12:37:58.225Z,2.3
2022-08-21T12:49:58.286Z,5.1
2022-08-21T13:01:58.350Z,5.1
2022-08-21T13:14:02.439Z,5.1
2022-08-21T13:25:57.886Z,4.7
2022-08-21T13:37:58.271Z,4.7
2022-08-21T13:49:59.377Z,4.0
2022-08-21T14:01:58.382Z,4.0
2022-08-21T14:13:57.869Z,4.0
2022-08-21T14:25:57.931Z,2.7
2022-08-21T14:37:57.913Z,2.7
2022-08-21T14:49:57.967Z,3.1
2022-08-21T15:01:57.919Z,3.1
2022-08-21T15:13:57.940Z,3.1
2022-08-21T15:25:57.885Z,3.2
2022-08-21T15:37:57.859Z,3.2
2022-08-21T15:49:57.878Z,1.7
2022-08-21T16:01:57.881Z,1.7
2022-08-21T16:13:57.868Z,1.7
2022-08-21T16:25:57.836Z,1.9
2022-08-21T16:37:57.827Z,1.9
2022-08-21T16:49:57.863Z,1.8
2022-08-21T17:01:57.843Z,1.8
2022-08-21T17:13:57.858Z,1.8
2022-08-21T17:25:57.908Z,1.8
2022-08-21T17:37:57.899Z,1.8
2022-08-21T17:49:57.848Z,2.5
2022-08-21T18:01:57.914Z,2.5
2022-08-21T18:13:57.862Z,2.5
2022-08-21T18:25:57.854Z,3.1
2022-08-21T18:37:57.878Z,3.1
2022-08-21T18:49:57.881Z,1.9
2022-08-21T19:01:57.865Z,1.9
2022-08-21T19:13:57.864Z,1.9
2022-08-21T19:26:00.534Z,3.0
2022-08-21T19:37:57.820Z,3.0
2022-08-21T19:49:57.879Z,3.0
2022-08-21T20:01:57.848Z,3.0
2022-08-21T20:13:57.816Z,3.0
2022-08-21T20:25:57.876Z,2.0
2022-08-21T20:37:58.986Z,2.0
2022-08-21T20:49:59.481Z,1.9
2022-08-21T21:01:57.868Z,1.9
2022-08-21T21:13:57.823Z,1.9
2022-08-21T21:25:57.861Z,2.5
2022-08-21T21:37:57.859Z,2.5
2022-08-21T21:49:57.831Z,1.4
2022-08-21T22:01:57.861Z,1.4
2022-08-21T22:13:57.846Z,1.4
2022-08-21T22:25:57.859Z,1.8
2022-08-21T22:37:57.845Z,1.8
2022-08-21T23:01:57.842Z,2.4
2022-08-21T23:13:57.863Z,2.4
2022-08-21T23:25:57.862Z,1.7
2022-08-21T23:37:57.875Z,1.7
2022-08-21T23:49:57.870Z,1.5
